createdAt,value
2018-05-27T06:37:23.820Z,6.10
2018-05-27T06:38:24.461Z,7.10
2018-05-27T06:39:25.052Z,6.80
2018-05-27T06:40:25.635Z,7.00
2018-05-27T06:41:26.217Z,6.70
2018-05-27T06:43:27.474Z,6.80
2018-05-27T06:44:28.321Z,6.70
2018-05-27T06:45:28.980Z,6.90
2018-05-27T06:46:29.648Z,6.50
2018-05-27T06:47:30.320Z,6.40
2018-05-27T06:48:30.889Z,5.80
2018-05-27T06:49:31.530Z,6.60
2018-05-27T06:50:32.111Z,6.20
2018-05-27T06:51:32.736Z,6.30
2018-05-27T06:52:33.364Z,6.30
2018-05-27T06:53:33.960Z,5.90
2018-05-27T06:54:44.038Z,6.10
2018-05-27T06:55:44.679Z,6.30
2018-05-27T06:56:45.287Z,6.20
2018-05-27T06:57:45.882Z,6.30
2018-05-27T06:58:46.442Z,6.40
2018-05-27T06:59:47.120Z,6.50
2018-05-27T07:00:47.770Z,6.50
2018-05-27T07:01:48.384Z,6.40
2018-05-27T07:02:48.976Z,5.90
2018-05-27T07:03:49.669Z,6.50
2018-05-27T07:04:54.525Z,6.00
2018-05-27T07:05:55.191Z,6.40
2018-05-27T07:07:56.116Z,6.20
2018-05-27T07:08:56.712Z,6.50
2018-05-27T07:09:57.349Z,6.10
2018-05-27T07:10:57.988Z,6.20
2018-05-27T07:11:58.628Z,5.90
2018-05-27T07:12:59.211Z,5.70
2018-05-27T07:13:59.806Z,5.80
2018-05-27T07:15:00.389Z,5.90
2018-05-27T07:16:22.251Z,6.20
2018-05-27T07:17:32.737Z,6.40
2018-05-27T07:18:36.662Z,5.80
2018-05-27T07:19:37.412Z,6.00
2018-05-27T07:20:38.053Z,5.70
2018-05-27T07:21:38.680Z,6.20
2018-05-27T07:22:39.299Z,5.70
2018-05-27T07:23:39.927Z,5.70
2018-05-27T07:24:40.501Z,5.80
2018-05-27T07:25:41.109Z,5.70
2018-05-27T07:26:41.734Z,6.30
2018-05-27T07:27:42.332Z,6.00
2018-05-27T07:28:42.932Z,6.10
2018-05-27T07:29:43.488Z,6.10
2018-05-27T07:30:44.111Z,5.90
2018-05-27T07:32:44.952Z,6.30
2018-05-27T07:33:45.593Z,6.00
2018-05-27T07:34:46.195Z,5.90
2018-05-27T07:35:53.810Z,5.90
2018-05-27T07:36:57.518Z,6.00
2018-05-27T07:38:00.931Z,5.70
2018-05-27T07:39:07.517Z,5.80
2018-05-27T07:40:32.444Z,5.70
2018-05-27T07:41:41.279Z,5.80
2018-05-27T07:42:42.052Z,5.90
2018-05-27T07:43:42.646Z,5.60
2018-05-27T07:44:43.239Z,5.50
2018-05-27T07:45:43.847Z,5.60
2018-05-27T07:46:44.489Z,5.40
2018-05-27T07:47:45.121Z,5.50
2018-05-27T07:48:45.712Z,5.50
2018-05-27T07:49:46.285Z,5.40
2018-05-27T07:50:46.900Z,5.70
2018-05-27T07:51:47.524Z,5.60
2018-05-27T07:52:48.101Z,5.30
2018-05-27T07:53:48.706Z,5.30
2018-05-27T07:54:49.301Z,5.50
2018-05-27T07:55:49.919Z,5.10
2018-05-27T07:56:50.511Z,5.40
2018-05-27T07:57:51.092Z,5.10
2018-05-27T07:58:51.667Z,5.10
2018-05-27T07:59:52.319Z,5.70
2018-05-27T08:00:52.942Z,5.10
2018-05-27T08:01:53.570Z,5.10
2018-05-27T08:02:54.270Z,5.30
2018-05-27T08:03:54.919Z,5.40
2018-05-27T08:04:55.552Z,5.30
2018-05-27T08:05:56.183Z,5.20
2018-05-27T08:06:56.756Z,5.30
2018-05-27T08:07:57.336Z,5.40
2018-05-27T08:08:57.959Z,5.70
2018-05-27T08:09:58.536Z,5.00
2018-05-27T08:10:59.186Z,4.90
2018-05-27T08:11:59.754Z,5.10
2018-05-27T08:13:00.352Z,5.10
2018-05-27T08:14:01.716Z,4.90
2018-05-27T08:15:02.439Z,4.80
2018-05-27T08:16:03.057Z,4.90
2018-05-27T08:17:03.645Z,4.70
2018-05-27T08:18:04.270Z,4.60
2018-05-27T08:19:04.919Z,5.20
2018-05-27T08:20:05.587Z,5.10
2018-05-27T08:22:06.557Z,4.80
2018-05-27T08:23:07.200Z,4.80
2018-05-27T08:24:07.856Z,4.80
2018-05-27T08:25:08.508Z,4.90
2018-05-27T08:26:09.236Z,5.10
2018-05-27T08:27:10.405Z,4.60
2018-05-27T08:28:13.218Z,4.90
2018-05-27T08:29:14.003Z,4.80
2018-05-27T08:30:15.009Z,4.60
2018-05-27T08:31:15.592Z,4.90
2018-05-27T08:32:37.378Z,4.40
2018-05-27T08:33:37.982Z,4.40
2018-05-27T08:34:38.572Z,4.30
2018-05-27T08:35:39.215Z,4.10
2018-05-27T08:36:39.877Z,4.00
2018-05-27T08:37:40.515Z,4.30
2018-05-27T08:38:41.120Z,4.20
2018-05-27T08:39:41.710Z,3.90
2018-05-27T08:40:42.445Z,3.90
2018-05-27T08:41:43.044Z,3.90
2018-05-27T08:42:43.685Z,4.20
2018-05-27T08:43:44.324Z,3.90
2018-05-27T08:44:44.922Z,4.10
2018-05-27T08:45:45.519Z,4.10
2018-05-27T08:46:46.112Z,3.90
2018-05-27T08:47:46.753Z,4.30
2018-05-27T08:48:47.419Z,3.90
2018-05-27T08:49:48.117Z,3.90
2018-05-27T08:50:48.696Z,3.50
2018-05-27T08:51:49.340Z,3.40
2018-05-27T08:52:49.974Z,3.40
2018-05-27T08:53:50.672Z,3.90
2018-05-27T08:54:51.439Z,3.60
2018-05-27T08:55:52.014Z,3.50
2018-05-27T08:57:52.886Z,3.60
2018-05-27T08:58:53.546Z,3.90
2018-05-27T08:59:54.142Z,3.60
2018-05-27T09:01:55.023Z,3.20
2018-05-27T09:02:55.628Z,3.20
2018-05-27T09:03:56.230Z,3.50
2018-05-27T09:04:57.021Z,3.70
2018-05-27T09:05:57.606Z,3.70
2018-05-27T09:06:58.273Z,3.40
2018-05-27T09:07:58.878Z,3.40
2018-05-27T09:08:59.510Z,3.50
2018-05-27T09:10:05.719Z,3.50
2018-05-27T09:11:06.369Z,3.50
2018-05-27T09:12:07.072Z,3.50
2018-05-27T09:13:07.707Z,3.80
2018-05-27T09:14:08.402Z,3.60
2018-05-27T09:15:09.071Z,3.80
2018-05-27T09:16:09.689Z,3.60
2018-05-27T09:17:10.273Z,3.50
2018-05-27T09:18:10.997Z,3.70
2018-05-27T09:19:11.661Z,3.60
2018-05-27T09:20:12.352Z,3.40
2018-05-27T09:21:13.012Z,3.10
2018-05-27T09:22:13.763Z,3.90
2018-05-27T09:23:14.399Z,3.20
2018-05-27T09:24:15.054Z,3.20
2018-05-27T09:25:15.663Z,3.30
2018-05-27T09:26:16.247Z,3.50
2018-05-27T09:27:16.853Z,3.60
2018-05-27T09:28:17.478Z,3.40
2018-05-27T09:29:18.068Z,3.80
2018-05-27T09:30:18.690Z,3.60
2018-05-27T09:31:19.437Z,3.60
2018-05-27T09:32:20.057Z,3.50
2018-05-27T09:34:21.010Z,3.50
2018-05-27T09:35:21.582Z,3.30
2018-05-27T09:36:22.179Z,3.30
2018-05-27T09:37:22.768Z,3.40
2018-05-27T09:38:23.422Z,3.10
2018-05-27T09:39:24.154Z,3.20
2018-05-27T09:40:24.861Z,3.10
2018-05-27T09:41:25.552Z,3.20
2018-05-27T09:42:26.162Z,3.20
2018-05-27T09:43:26.771Z,3.00
2018-05-27T09:44:27.386Z,3.20
2018-05-27T09:45:28.014Z,3.20
2018-05-27T09:46:28.666Z,3.20
2018-05-27T09:47:29.422Z,2.90
2018-05-27T09:48:31.312Z,3.50
2018-05-27T09:49:31.976Z,3.20
2018-05-27T09:50:36.300Z,3.30
2018-05-27T09:51:37.083Z,3.30
2018-05-27T09:52:39.260Z,3.00
2018-05-27T09:53:45.550Z,3.00
2018-05-27T09:54:46.223Z,3.10
2018-05-27T09:55:50.830Z,3.30
2018-05-27T09:56:51.591Z,3.20
2018-05-27T09:57:52.315Z,3.30
2018-05-27T09:58:52.909Z,3.30
2018-05-27T09:59:57.440Z,3.10
2018-05-27T10:00:59.471Z,3.50
2018-05-27T10:02:00.135Z,3.10
2018-05-27T10:03:00.756Z,3.60
2018-05-27T10:04:01.422Z,3.00
2018-05-27T10:05:02.051Z,3.30
2018-05-27T10:06:02.673Z,3.00
2018-05-27T10:07:03.262Z,3.00
2018-05-27T10:08:03.919Z,5.00
2018-05-27T10:09:04.558Z,4.80
2018-05-27T10:10:05.374Z,5.30
2018-05-27T10:11:06.014Z,7.80
2018-05-27T10:12:06.634Z,5.00
2018-05-27T10:13:07.241Z,4.70
2018-05-27T10:14:07.870Z,4.40
2018-05-27T10:15:08.502Z,3.70
2018-05-27T10:16:09.178Z,3.70
2018-05-27T10:17:09.759Z,3.40
2018-05-27T10:18:10.366Z,3.30
2018-05-27T10:19:10.966Z,3.40
2018-05-27T10:20:11.569Z,3.20
2018-05-27T10:21:12.192Z,4.30
2018-05-27T10:22:12.846Z,4.40
2018-05-27T10:23:13.489Z,3.30
2018-05-27T10:24:14.184Z,3.30
2018-05-27T10:25:14.819Z,4.30
2018-05-27T10:26:15.440Z,4.90
2018-05-27T10:27:16.042Z,3.30
2018-05-27T10:28:16.647Z,3.00
2018-05-27T10:29:17.287Z,3.20
2018-05-27T10:30:17.895Z,3.20
2018-05-27T10:31:18.629Z,3.50
2018-05-27T10:32:19.228Z,3.60
2018-05-27T10:33:19.851Z,3.20
2018-05-27T10:34:20.474Z,3.30
2018-05-27T10:35:21.065Z,3.50
2018-05-27T10:36:21.685Z,3.50
2018-05-27T10:37:22.275Z,3.20
2018-05-27T10:38:22.872Z,3.60
2018-05-27T10:39:23.521Z,3.50
2018-05-27T10:40:24.240Z,3.40
2018-05-27T10:41:24.918Z,3.50
2018-05-27T10:42:25.557Z,3.70
2018-05-27T10:43:26.240Z,3.20
2018-05-27T10:44:26.862Z,3.50
2018-05-27T10:45:27.453Z,3.20
2018-05-27T10:46:28.038Z,3.20
2018-05-27T10:47:28.657Z,3.20
2018-05-27T10:48:29.275Z,3.10
2018-05-27T10:49:29.934Z,3.00
2018-05-27T10:50:30.556Z,3.50
2018-05-27T10:51:32.226Z,3.70
2018-05-27T10:52:32.828Z,3.40
2018-05-27T10:53:33.457Z,3.30
2018-05-27T10:54:34.392Z,3.40
2018-05-27T10:55:35.041Z,3.20
2018-05-27T10:56:35.657Z,3.30
2018-05-27T10:57:36.487Z,3.10
2018-05-27T10:58:37.064Z,3.30
2018-05-27T10:59:37.654Z,3.10
2018-05-27T11:00:38.285Z,3.10
2018-05-27T11:01:39.633Z,3.30
2018-05-27T11:02:46.852Z,3.70
2018-05-27T11:04:07.861Z,3.70
2018-05-27T11:05:11.267Z,3.70
2018-05-27T11:06:16.768Z,3.70
2018-05-27T11:07:18.152Z,3.20
2018-05-27T11:08:18.736Z,3.20
2018-05-27T11:09:19.340Z,3.50
2018-05-27T11:10:22.580Z,3.40
2018-05-27T11:11:23.942Z,3.40
2018-05-27T11:12:24.565Z,3.30
2018-05-27T11:13:25.200Z,3.10
2018-05-27T11:14:25.852Z,3.40
2018-05-27T11:15:26.464Z,3.50
2018-05-27T11:16:27.081Z,3.20
2018-05-27T11:17:27.704Z,3.60
2018-05-27T11:18:28.309Z,3.80
2018-05-27T11:19:28.916Z,3.40
2018-05-27T11:20:29.498Z,3.70
2018-05-27T11:21:30.172Z,3.60
2018-05-27T11:22:30.773Z,3.30
2018-05-27T11:23:31.370Z,3.10
2018-05-27T11:24:31.971Z,3.30
2018-05-27T11:25:32.570Z,3.30
2018-05-27T11:26:33.190Z,3.20
2018-05-27T11:27:33.841Z,3.30
2018-05-27T11:28:34.433Z,3.20
2018-05-27T11:29:35.023Z,3.20
2018-05-27T11:30:35.624Z,3.40
2018-05-27T11:31:36.268Z,3.30
2018-05-27T11:32:37.637Z,3.20
2018-05-27T11:33:38.262Z,3.20
2018-05-27T11:34:39.023Z,3.50
2018-05-27T11:35:39.618Z,3.30
2018-05-27T11:36:40.311Z,3.40
2018-05-27T11:37:40.987Z,3.30
2018-05-27T11:38:41.583Z,3.30
2018-05-27T11:39:42.217Z,3.70
2018-05-27T11:40:42.796Z,3.40
2018-05-27T11:41:43.466Z,3.20
2018-05-27T11:42:44.219Z,3.10
2018-05-27T11:43:44.825Z,3.30
2018-05-27T11:44:45.449Z,3.20
2018-05-27T11:45:46.068Z,3.40
2018-05-27T11:46:46.646Z,3.00
2018-05-27T11:47:47.252Z,3.20
2018-05-27T11:48:47.874Z,3.60
2018-05-27T11:49:48.586Z,3.40
2018-05-27T11:50:49.219Z,3.30
2018-05-27T11:51:50.498Z,3.40
2018-05-27T11:52:51.079Z,4.00
2018-05-27T11:53:51.741Z,5.00
2018-05-27T11:54:52.424Z,3.80
2018-05-27T11:55:53.121Z,3.40
2018-05-27T11:56:53.800Z,3.70
2018-05-27T11:57:54.425Z,3.50
2018-05-27T11:58:55.055Z,3.40
2018-05-27T11:59:55.704Z,3.20
2018-05-27T12:00:56.303Z,3.00
2018-05-27T12:01:56.924Z,3.00
2018-05-27T12:02:57.585Z,2.90
2018-05-27T12:03:58.228Z,3.20
2018-05-27T12:04:58.925Z,3.40
2018-05-27T12:05:59.541Z,3.00
2018-05-27T12:07:00.198Z,3.20
2018-05-27T12:08:00.784Z,3.20
2018-05-27T12:09:01.448Z,3.00
2018-05-27T12:10:03.540Z,3.50
2018-05-27T12:11:04.212Z,3.10
2018-05-27T12:12:05.769Z,3.30
2018-05-27T12:13:06.479Z,3.50
2018-05-27T12:14:07.127Z,3.30
2018-05-27T12:15:07.756Z,3.40
2018-05-27T12:16:08.540Z,3.60
2018-05-27T12:17:09.292Z,3.50
2018-05-27T12:18:10.047Z,3.70
2018-05-27T12:19:10.690Z,3.80
2018-05-27T12:20:11.327Z,3.20
2018-05-27T12:21:12.592Z,3.40
2018-05-27T12:22:13.227Z,3.60
2018-05-27T12:23:13.909Z,3.50
2018-05-27T12:24:14.510Z,3.30
2018-05-27T12:25:15.101Z,3.10
2018-05-27T12:26:15.803Z,3.20
2018-05-27T12:27:16.409Z,3.00
2018-05-27T12:28:17.068Z,3.20
2018-05-27T12:29:17.796Z,3.00
2018-05-27T12:30:18.409Z,3.00
2018-05-27T12:31:19.007Z,3.00
2018-05-27T12:32:19.573Z,3.10
2018-05-27T12:33:20.173Z,3.30
2018-05-27T12:34:20.771Z,3.10
2018-05-27T12:35:21.394Z,2.90
2018-05-27T12:36:21.963Z,3.20
2018-05-27T12:37:22.554Z,2.90
2018-05-27T12:38:23.130Z,3.10
2018-05-27T12:39:23.827Z,2.70
2018-05-27T12:40:24.593Z,2.80
2018-05-27T12:41:25.230Z,2.90
2018-05-27T12:42:25.914Z,2.90
2018-05-27T12:43:26.531Z,2.70
2018-05-27T12:44:27.128Z,3.10
2018-05-27T12:45:27.761Z,2.80
2018-05-27T12:46:28.405Z,2.90
2018-05-27T12:47:29.123Z,3.10
2018-05-27T12:48:29.750Z,2.80
2018-05-27T12:49:30.364Z,2.90
2018-05-27T12:50:30.963Z,3.20
2018-05-27T12:51:31.585Z,3.10
2018-05-27T12:52:32.174Z,2.80
2018-05-27T12:53:32.743Z,2.90
2018-05-27T12:54:33.388Z,3.10
2018-05-27T12:55:34.040Z,3.20
2018-05-27T12:56:34.659Z,2.80
2018-05-27T12:57:35.301Z,3.00
2018-05-27T12:58:35.933Z,2.80
2018-05-27T12:59:36.511Z,2.90
2018-05-27T13:00:37.138Z,2.70
2018-05-27T13:01:37.796Z,2.90
2018-05-27T13:02:38.402Z,3.10
2018-05-27T13:03:38.992Z,2.80
2018-05-27T13:04:39.709Z,3.00
2018-05-27T13:05:40.280Z,2.90
2018-05-27T13:06:40.918Z,2.80
2018-05-27T13:07:41.542Z,2.90
2018-05-27T13:08:42.223Z,3.00
2018-05-27T13:09:42.820Z,2.90
2018-05-27T13:10:43.426Z,3.10
2018-05-27T13:11:44.024Z,2.80
2018-05-27T13:12:44.681Z,2.80
2018-05-27T13:13:45.393Z,3.10
2018-05-27T13:14:46.016Z,3.10
2018-05-27T13:15:46.677Z,3.00
2018-05-27T13:16:47.547Z,2.80
2018-05-27T13:17:48.089Z,3.00
2018-05-27T13:18:48.700Z,3.00
2018-05-27T13:19:49.371Z,3.20
2018-05-27T13:20:49.981Z,3.10
2018-05-27T13:21:50.567Z,3.10
2018-05-27T13:23:51.466Z,3.30
2018-05-27T13:24:52.120Z,3.40
2018-05-27T13:25:52.740Z,3.00
2018-05-27T13:26:53.336Z,3.20
2018-05-27T13:27:53.957Z,3.00
2018-05-27T13:28:54.569Z,3.00
2018-05-27T13:29:55.211Z,3.20
2018-05-27T13:30:55.837Z,3.10
2018-05-27T13:31:56.476Z,3.00
2018-05-27T13:32:57.117Z,2.80
2018-05-27T13:33:57.847Z,2.90
2018-05-27T13:34:58.540Z,3.40
2018-05-27T13:35:59.151Z,3.50
2018-05-27T13:36:59.778Z,3.20
2018-05-27T13:38:00.364Z,3.10
2018-05-27T13:39:00.946Z,3.20
2018-05-27T13:40:01.509Z,3.20
2018-05-27T13:41:02.073Z,3.10
2018-05-27T13:42:02.660Z,3.30
2018-05-27T13:43:03.292Z,3.40
2018-05-27T13:44:03.941Z,3.50
2018-05-27T13:45:04.588Z,3.40
2018-05-27T13:46:05.274Z,3.60
2018-05-27T13:47:05.891Z,3.30
2018-05-27T13:48:06.508Z,3.50
2018-05-27T13:49:07.123Z,3.60
2018-05-27T13:50:07.701Z,3.20
2018-05-27T13:52:08.722Z,3.40
2018-05-27T13:53:09.371Z,3.50
2018-05-27T13:54:09.990Z,3.40
2018-05-27T13:55:10.577Z,3.70
2018-05-27T13:56:11.206Z,3.40
2018-05-27T13:57:11.765Z,3.70
2018-05-27T13:58:12.423Z,3.50
2018-05-27T13:59:13.046Z,3.80
2018-05-27T14:00:13.762Z,3.50
2018-05-27T14:01:14.488Z,3.90
2018-05-27T14:02:15.078Z,4.00
2018-05-27T14:03:15.670Z,3.80
2018-05-27T14:04:16.226Z,4.10
2018-05-27T14:05:16.837Z,4.00
2018-05-27T14:06:17.468Z,3.60
2018-05-27T14:07:18.059Z,3.60
2018-05-27T14:08:18.738Z,3.80
2018-05-27T14:09:19.394Z,4.00
2018-05-27T14:11:20.252Z,3.80
2018-05-27T14:12:20.886Z,3.50
2018-05-27T14:13:21.558Z,3.70
2018-05-27T14:14:22.207Z,3.50
2018-05-27T14:15:22.868Z,3.50
2018-05-27T14:16:23.473Z,3.50
2018-05-27T14:17:24.071Z,3.50
2018-05-27T14:18:24.644Z,3.50
2018-05-27T14:19:25.240Z,3.60
2018-05-27T14:20:29.051Z,3.20
2018-05-27T14:21:29.672Z,3.20
2018-05-27T14:22:30.255Z,3.30
2018-05-27T14:23:30.877Z,3.30
2018-05-27T14:24:31.456Z,4.00
2018-05-27T14:25:32.087Z,3.40
2018-05-27T14:27:32.965Z,3.40
2018-05-27T14:28:33.575Z,3.40
2018-05-27T14:29:34.195Z,3.60
2018-05-27T14:30:34.791Z,3.80
2018-05-27T14:31:35.410Z,3.60
2018-05-27T14:32:36.072Z,3.70
2018-05-27T14:34:36.935Z,3.70
2018-05-27T14:35:37.631Z,3.50
2018-05-27T14:36:38.246Z,3.90
2018-05-27T14:38:39.143Z,3.60
2018-05-27T14:39:39.792Z,3.60
2018-05-27T14:40:40.378Z,3.80
2018-05-27T14:41:40.995Z,3.80
2018-05-27T14:42:41.601Z,3.50
2018-05-27T14:43:42.187Z,3.70
2018-05-27T14:44:42.836Z,3.80
2018-05-27T14:45:43.442Z,3.70
2018-05-27T14:46:44.021Z,3.70
2018-05-27T14:47:44.708Z,3.80
2018-05-27T14:48:45.300Z,3.60
2018-05-27T14:49:45.927Z,3.60
2018-05-27T14:50:46.553Z,3.50
2018-05-27T14:51:47.191Z,3.60
2018-05-27T14:52:47.911Z,3.70
2018-05-27T14:53:48.552Z,3.40
2018-05-27T14:54:49.138Z,3.60
2018-05-27T14:55:49.746Z,3.40
2018-05-27T14:56:50.350Z,3.50
2018-05-27T14:57:51.248Z,3.20
2018-05-27T14:58:51.915Z,3.50
2018-05-27T14:59:52.549Z,3.40
2018-05-27T15:00:53.120Z,3.30
2018-05-27T15:01:53.706Z,3.40
2018-05-27T15:02:54.337Z,3.40
2018-05-27T15:03:54.973Z,3.60
2018-05-27T15:04:55.620Z,3.70
2018-05-27T15:05:56.256Z,3.70
2018-05-27T15:06:56.873Z,3.80
2018-05-27T15:08:57.901Z,3.30
2018-05-27T15:09:58.544Z,3.40
2018-05-27T15:10:59.238Z,3.30
2018-05-27T15:11:59.830Z,3.50
2018-05-27T15:13:00.523Z,3.90
2018-05-27T15:14:01.849Z,3.40
2018-05-27T15:15:02.448Z,3.40
2018-05-27T15:16:03.023Z,3.30
2018-05-27T15:17:03.644Z,3.30
2018-05-27T15:18:04.253Z,3.60
2018-05-27T15:19:04.895Z,3.40
2018-05-27T15:20:05.495Z,3.50
2018-05-27T15:21:06.122Z,3.20
2018-05-27T15:22:06.749Z,3.30
2018-05-27T15:23:07.371Z,3.40
2018-05-27T15:24:07.981Z,3.40
2018-05-27T15:25:08.692Z,3.50
2018-05-27T15:26:09.305Z,3.50
2018-05-27T15:27:09.920Z,3.30
2018-05-27T15:28:10.542Z,3.20
2018-05-27T15:29:11.126Z,3.40
2018-05-27T15:30:11.722Z,3.20
2018-05-27T15:31:12.331Z,3.40
2018-05-27T15:32:12.949Z,3.40
2018-05-27T15:33:13.575Z,3.30
2018-05-27T15:34:14.159Z,3.30
2018-05-27T15:35:14.738Z,3.20
2018-05-27T15:36:15.338Z,3.30
2018-05-27T15:37:15.950Z,3.30
2018-05-27T15:38:16.553Z,3.40
2018-05-27T15:39:17.158Z,3.90
2018-05-27T15:40:17.768Z,3.20
2018-05-27T15:41:18.374Z,3.60
2018-05-27T15:42:18.958Z,3.40
2018-05-27T15:43:19.650Z,3.20
2018-05-27T15:44:20.216Z,3.10
2018-05-27T15:45:20.821Z,3.40
2018-05-27T15:46:21.436Z,3.20
2018-05-27T15:47:22.066Z,3.20
2018-05-27T15:48:22.690Z,3.20
2018-05-27T15:49:23.286Z,3.70
2018-05-27T15:51:24.185Z,3.20
2018-05-27T15:52:24.762Z,3.10
2018-05-27T15:54:25.631Z,3.40
2018-05-27T15:55:26.345Z,3.60
2018-05-27T15:56:27.003Z,4.40
2018-05-27T15:57:27.667Z,4.40
2018-05-27T15:58:28.382Z,4.30
2018-05-27T15:59:28.982Z,3.80
2018-05-27T16:00:29.574Z,3.90
2018-05-27T16:02:30.438Z,3.90
2018-05-27T16:03:31.134Z,4.10
2018-05-27T16:05:02.161Z,4.30
2018-05-27T16:05:54.491Z,3.80
2018-05-27T16:06:55.112Z,3.40
2018-05-27T16:07:55.729Z,3.30
2018-05-27T16:08:56.391Z,3.50
2018-05-27T16:09:56.993Z,3.40
2018-05-27T16:10:57.672Z,3.40
2018-05-27T16:11:59.202Z,3.10
2018-05-27T16:12:59.827Z,3.00
2018-05-27T16:14:00.433Z,3.30
2018-05-27T16:15:01.103Z,3.20
2018-05-27T16:16:01.719Z,3.10
2018-05-27T16:17:02.337Z,3.30
2018-05-27T16:18:02.973Z,3.00
2018-05-27T16:19:03.660Z,3.10
2018-05-27T16:33:54.336Z,2.70
2018-05-27T16:34:54.899Z,4.50
2018-05-27T16:35:55.569Z,4.20
2018-05-27T16:36:56.185Z,4.00
2018-05-27T16:37:56.763Z,4.40
2018-05-27T16:38:57.337Z,4.20
2018-05-27T16:39:57.957Z,4.10
